Alvarado, Minnesota
Current Conditions -  °F | °C
As of 2:53 PM on Wednesday 17 Dec 2014 (Local Time) from KGFK Reporting Station
Few Clouds Few Clouds  
Wind Chill: 10°   Ceiling: Unl
Heat Index: 18°   Visibility: 10mi
Dew Point: 10°   Wind: 6mph
Humidity: 71%   Direction: 50°NE
Pressure: 30.33"   Gusts: NA
Location:  48.19°N, 97°W
Report Text: KGFK 172053Z 05005KT 10SM FEW250 M08/M12 A3033 RMK AO2 SLP294 T10781122 56015
Loading
Personal Weather Stations






























Interactive Weather Map New forecast layout! Learn more

10-Day Weather Forecast

Advertisements
Track Severe Weather on mobile